sensor_id;sensor_type;location;lat;lon;timestamp;temperature;humidity
24224;DHT22;12359;49.716;9.212;2023-03-14T00:01:20;11.10;36.40
24224;DHT22;12359;49.716;9.212;2023-03-14T00:03:46;11.20;30.90
24224;DHT22;12359;49.716;9.212;2023-03-14T00:06:13;11.20;28.70
24224;DHT22;12359;49.716;9.212;2023-03-14T00:08:40;11.20;30.00
24224;DHT22;12359;49.716;9.212;2023-03-14T00:11:07;11.30;25.50
24224;DHT22;12359;49.716;9.212;2023-03-14T00:13:33;11.30;25.00
24224;DHT22;12359;49.716;9.212;2023-03-14T00:16:07;11.30;25.80
24224;DHT22;12359;49.716;9.212;2023-03-14T00:18:33;11.30;17.80
24224;DHT22;12359;49.716;9.212;2023-03-14T00:21:00;11.40;17.20
24224;DHT22;12359;49.716;9.212;2023-03-14T00:23:28;11.40;16.00
24224;DHT22;12359;49.716;9.212;2023-03-14T00:26:08;11.40;16.10
24224;DHT22;12359;49.716;9.212;2023-03-14T00:28:35;11.40;24.10
24224;DHT22;12359;49.716;9.212;2023-03-14T00:31:04;11.30;27.10
24224;DHT22;12359;49.716;9.212;2023-03-14T00:33:30;11.30;21.50
24224;DHT22;12359;49.716;9.212;2023-03-14T00:36:01;11.30;23.80
24224;DHT22;12359;49.716;9.212;2023-03-14T00:38:27;11.30;15.10
24224;DHT22;12359;49.716;9.212;2023-03-14T00:40:54;11.40;16.50
24224;DHT22;12359;49.716;9.212;2023-03-14T00:43:21;11.40;1.90
24224;DHT22;12359;49.716;9.212;2023-03-14T00:45:51;11.40;1.00
24224;DHT22;12359;49.716;9.212;2023-03-14T00:48:18;11.40;1.60
24224;DHT22;12359;49.716;9.212;2023-03-14T00:50:44;11.50;1.00
24224;DHT22;12359;49.716;9.212;2023-03-14T00:53:09;11.50;1.00
24224;DHT22;12359;49.716;9.212;2023-03-14T00:55:40;11.40;1.00
24224;DHT22;12359;49.716;9.212;2023-03-14T00:58:08;11.40;1.00
24224;DHT22;12359;49.716;9.212;2023-03-14T01:00:34;11.40;1.00
24224;DHT22;12359;49.716;9.212;2023-03-14T01:03:01;11.30;3.30
24224;DHT22;12359;49.716;9.212;2023-03-14T01:05:27;11.40;1.00
24224;DHT22;12359;49.716;9.212;2023-03-14T01:07:53;11.50;1.00
24224;DHT22;12359;49.716;9.212;2023-03-14T01:10:18;11.50;1.00
24224;DHT22;12359;49.716;9.212;2023-03-14T01:12:44;11.50;1.00
24224;DHT22;12359;49.716;9.212;2023-03-14T01:15:10;11.50;1.00
24224;DHT22;12359;49.716;9.212;2023-03-14T01:17:36;11.50;1.00
24224;DHT22;12359;49.716;9.212;2023-03-14T01:20:04;11.40;1.00
24224;DHT22;12359;49.716;9.212;2023-03-14T01:22:35;11.40;1.00
24224;DHT22;12359;49.716;9.212;2023-03-14T01:25:01;11.40;1.00
24224;DHT22;12359;49.716;9.212;2023-03-14T01:27:26;11.40;1.00
24224;DHT22;12359;49.716;9.212;2023-03-14T01:29:52;11.40;1.00
24224;DHT22;12359;49.716;9.212;2023-03-14T01:32:18;11.40;1.00
24224;DHT22;12359;49.716;9.212;2023-03-14T01:34:43;11.40;1.00
24224;DHT22;12359;49.716;9.212;2023-03-14T01:37:09;11.40;1.00
24224;DHT22;12359;49.716;9.212;2023-03-14T01:39:37;11.40;1.00
24224;DHT22;12359;49.716;9.212;2023-03-14T01:42:03;11.40;1.00
24224;DHT22;12359;49.716;9.212;2023-03-14T01:47:14;11.40;1.00
24224;DHT22;12359;49.716;9.212;2023-03-14T01:49:40;11.40;1.00
24224;DHT22;12359;49.716;9.212;2023-03-14T01:52:46;11.30;1.00
24224;DHT22;12359;49.716;9.212;2023-03-14T01:55:14;11.30;7.50
24224;DHT22;12359;49.716;9.212;2023-03-14T01:57:50;11.20;9.70
24224;DHT22;12359;49.716;9.212;2023-03-14T02:00:17;11.20;10.80
24224;DHT22;12359;49.716;9.212;2023-03-14T02:02:49;11.20;2.10
24224;DHT22;12359;49.716;9.212;2023-03-14T02:05:18;11.10;2.50
24224;DHT22;12359;49.716;9.212;2023-03-14T02:07:51;11.10;7.00
24224;DHT22;12359;49.716;9.212;2023-03-14T02:10:19;11.10;4.30
24224;DHT22;12359;49.716;9.212;2023-03-14T02:12:48;11.20;4.30
24224;DHT22;12359;49.716;9.212;2023-03-14T02:15:14;11.20;6.70
24224;DHT22;12359;49.716;9.212;2023-03-14T02:17:42;11.20;8.70
24224;DHT22;12359;49.716;9.212;2023-03-14T02:22:42;11.30;1.00
24224;DHT22;12359;49.716;9.212;2023-03-14T02:25:13;11.30;1.00
24224;DHT22;12359;49.716;9.212;2023-03-14T02:27:41;11.40;1.00
24224;DHT22;12359;49.716;9.212;2023-03-14T02:30:15;11.40;1.00
24224;DHT22;12359;49.716;9.212;2023-03-14T02:32:45;11.50;1.00
24224;DHT22;12359;49.716;9.212;2023-03-14T02:35:18;11.40;1.00
24224;DHT22;12359;49.716;9.212;2023-03-14T02:37:46;11.50;1.00
24224;DHT22;12359;49.716;9.212;2023-03-14T02:40:13;11.50;1.00
24224;DHT22;12359;49.716;9.212;2023-03-14T02:42:39;11.50;1.00
24224;DHT22;12359;49.716;9.212;2023-03-14T02:47:33;11.50;1.00
24224;DHT22;12359;49.716;9.212;2023-03-14T02:50:12;11.60;1.00
24224;DHT22;12359;49.716;9.212;2023-03-14T02:52:38;11.70;1.00
24224;DHT22;12359;49.716;9.212;2023-03-14T02:55:04;11.70;1.00
24224;DHT22;12359;49.716;9.212;2023-03-14T02:57:30;11.70;1.00
24224;DHT22;12359;49.716;9.212;2023-03-14T02:59:59;11.60;1.00
24224;DHT22;12359;49.716;9.212;2023-03-14T03:02:26;11.60;1.00
24224;DHT22;12359;49.716;9.212;2023-03-14T03:04:52;11.60;1.00
24224;DHT22;12359;49.716;9.212;2023-03-14T03:07:17;11.50;1.00
24224;DHT22;12359;49.716;9.212;2023-03-14T03:09:44;11.50;1.00
24224;DHT22;12359;49.716;9.212;2023-03-14T03:12:10;11.50;1.00
24224;DHT22;12359;49.716;9.212;2023-03-14T03:14:36;11.50;1.00
24224;DHT22;12359;49.716;9.212;2023-03-14T03:17:04;11.50;1.00
24224;DHT22;12359;49.716;9.212;2023-03-14T03:19:30;11.60;1.00
24224;DHT22;12359;49.716;9.212;2023-03-14T03:21:56;11.70;1.00
24224;DHT22;12359;49.716;9.212;2023-03-14T03:24:23;11.60;1.00
24224;DHT22;12359;49.716;9.212;2023-03-14T03:26:49;11.60;1.00
24224;DHT22;12359;49.716;9.212;2023-03-14T03:29:14;11.60;1.00
24224;DHT22;12359;49.716;9.212;2023-03-14T03:31:40;11.60;1.00
24224;DHT22;12359;49.716;9.212;2023-03-14T03:34:06;11.60;1.00
24224;DHT22;12359;49.716;9.212;2023-03-14T03:36:32;11.60;1.00
24224;DHT22;12359;49.716;9.212;2023-03-14T03:38:58;11.60;1.00
24224;DHT22;12359;49.716;9.212;2023-03-14T03:41:23;11.60;1.00
24224;DHT22;12359;49.716;9.212;2023-03-14T03:43:49;11.60;1.00
24224;DHT22;12359;49.716;9.212;2023-03-14T03:46:14;11.60;1.00
24224;DHT22;12359;49.716;9.212;2023-03-14T03:48:40;11.60;1.00
24224;DHT22;12359;49.716;9.212;2023-03-14T03:51:06;11.60;1.00
24224;DHT22;12359;49.716;9.212;2023-03-14T03:53:32;11.60;1.00
24224;DHT22;12359;49.716;9.212;2023-03-14T03:55:58;11.50;1.00
24224;DHT22;12359;49.716;9.212;2023-03-14T03:58:23;11.40;1.00
24224;DHT22;12359;49.716;9.212;2023-03-14T04:00:49;11.40;1.00
24224;DHT22;12359;49.716;9.212;2023-03-14T04:03:14;11.50;1.00
24224;DHT22;12359;49.716;9.212;2023-03-14T04:05:40;11.50;99.90
24224;DHT22;12359;49.716;9.212;2023-03-14T04:08:06;11.50;1.00
24224;DHT22;12359;49.716;9.212;2023-03-14T04:10:34;11.40;1.00
24224;DHT22;12359;49.716;9.212;2023-03-14T04:13:00;11.40;1.00
24224;DHT22;12359;49.716;9.212;2023-03-14T04:15:26;11.50;99.90
24224;DHT22;12359;49.716;9.212;2023-03-14T04:17:54;11.40;1.00
24224;DHT22;12359;49.716;9.212;2023-03-14T04:20:21;11.40;1.00
24224;DHT22;12359;49.716;9.212;2023-03-14T04:22:46;11.30;1.00
24224;DHT22;12359;49.716;9.212;2023-03-14T04:25:12;11.30;99.90
24224;DHT22;12359;49.716;9.212;2023-03-14T04:27:38;11.40;99.90
24224;DHT22;12359;49.716;9.212;2023-03-14T04:30:04;11.40;99.90
24224;DHT22;12359;49.716;9.212;2023-03-14T04:32:30;11.40;99.90
24224;DHT22;12359;49.716;9.212;2023-03-14T04:34:55;11.40;99.90
24224;DHT22;12359;49.716;9.212;2023-03-14T04:37:21;11.40;99.90
24224;DHT22;12359;49.716;9.212;2023-03-14T04:39:47;11.40;99.90
24224;DHT22;12359;49.716;9.212;2023-03-14T04:42:12;11.40;99.90
24224;DHT22;12359;49.716;9.212;2023-03-14T04:44:38;11.40;99.90
24224;DHT22;12359;49.716;9.212;2023-03-14T04:47:03;11.40;99.90
24224;DHT22;12359;49.716;9.212;2023-03-14T04:49:29;11.40;99.90
24224;DHT22;12359;49.716;9.212;2023-03-14T04:51:55;11.40;99.90
24224;DHT22;12359;49.716;9.212;2023-03-14T04:54:21;11.30;99.90
24224;DHT22;12359;49.716;9.212;2023-03-14T04:56:46;11.30;99.90
24224;DHT22;12359;49.716;9.212;2023-03-14T04:59:12;11.30;99.90
24224;DHT22;12359;49.716;9.212;2023-03-14T05:01:37;11.30;99.90
24224;DHT22;12359;49.716;9.212;2023-03-14T05:04:03;11.30;99.90
24224;DHT22;12359;49.716;9.212;2023-03-14T05:06:29;11.20;99.90
24224;DHT22;12359;49.716;9.212;2023-03-14T05:08:54;11.20;99.90
24224;DHT22;12359;49.716;9.212;2023-03-14T05:11:20;11.20;99.90
24224;DHT22;12359;49.716;9.212;2023-03-14T05:13:46;11.20;99.90
24224;DHT22;12359;49.716;9.212;2023-03-14T05:16:11;11.20;99.90
24224;DHT22;12359;49.716;9.212;2023-03-14T05:18:37;11.20;99.90
24224;DHT22;12359;49.716;9.212;2023-03-14T05:21:03;11.20;99.90
24224;DHT22;12359;49.716;9.212;2023-03-14T05:23:29;11.20;99.90
24224;DHT22;12359;49.716;9.212;2023-03-14T05:25:55;11.10;99.90
24224;DHT22;12359;49.716;9.212;2023-03-14T05:28:21;11.10;99.90
24224;DHT22;12359;49.716;9.212;2023-03-14T05:30:47;11.00;99.90
24224;DHT22;12359;49.716;9.212;2023-03-14T05:33:13;11.10;99.90
24224;DHT22;12359;49.716;9.212;2023-03-14T05:35:38;11.10;99.90
24224;DHT22;12359;49.716;9.212;2023-03-14T05:38:04;11.00;99.90
24224;DHT22;12359;49.716;9.212;2023-03-14T05:40:30;11.00;99.90
24224;DHT22;12359;49.716;9.212;2023-03-14T05:42:55;11.00;99.90
24224;DHT22;12359;49.716;9.212;2023-03-14T05:45:21;11.00;99.90
24224;DHT22;12359;49.716;9.212;2023-03-14T05:47:47;11.10;99.90
24224;DHT22;12359;49.716;9.212;2023-03-14T05:50:12;11.20;99.90
24224;DHT22;12359;49.716;9.212;2023-03-14T05:52:38;11.30;99.90
24224;DHT22;12359;49.716;9.212;2023-03-14T05:55:04;11.40;99.90
24224;DHT22;12359;49.716;9.212;2023-03-14T05:57:30;11.30;99.90
24224;DHT22;12359;49.716;9.212;2023-03-14T05:59:55;11.30;99.90
24224;DHT22;12359;49.716;9.212;2023-03-14T06:02:21;11.30;99.90
24224;DHT22;12359;49.716;9.212;2023-03-14T06:04:47;11.40;31.20
24224;DHT22;12359;49.716;9.212;2023-03-14T06:07:12;11.40;99.90
24224;DHT22;12359;49.716;9.212;2023-03-14T06:09:38;11.40;99.90
24224;DHT22;12359;49.716;9.212;2023-03-14T06:12:05;11.30;99.90
24224;DHT22;12359;49.716;9.212;2023-03-14T06:14:31;11.30;99.90
24224;DHT22;12359;49.716;9.212;2023-03-14T06:16:57;11.40;99.90
24224;DHT22;12359;49.716;9.212;2023-03-14T06:19:25;11.30;99.90
24224;DHT22;12359;49.716;9.212;2023-03-14T06:21:51;11.30;99.90
24224;DHT22;12359;49.716;9.212;2023-03-14T06:24:17;11.30;99.90
24224;DHT22;12359;49.716;9.212;2023-03-14T06:26:43;11.40;82.30
24224;DHT22;12359;49.716;9.212;2023-03-14T06:29:08;11.40;99.90
24224;DHT22;12359;49.716;9.212;2023-03-14T06:31:34;11.40;35.80
24224;DHT22;12359;49.716;9.212;2023-03-14T06:34:00;11.40;96.60
24224;DHT22;12359;49.716;9.212;2023-03-14T06:36:26;11.40;99.90
24224;DHT22;12359;49.716;9.212;2023-03-14T06:38:52;11.40;79.30
24224;DHT22;12359;49.716;9.212;2023-03-14T06:41:17;11.40;99.90
24224;DHT22;12359;49.716;9.212;2023-03-14T06:43:43;11.40;99.90
24224;DHT22;12359;49.716;9.212;2023-03-14T06:46:09;11.50;50.80
24224;DHT22;12359;49.716;9.212;2023-03-14T06:48:35;11.50;1.00
24224;DHT22;12359;49.716;9.212;2023-03-14T06:51:01;11.60;1.00
24224;DHT22;12359;49.716;9.212;2023-03-14T06:53:26;11.60;1.00
24224;DHT22;12359;49.716;9.212;2023-03-14T06:55:52;11.70;1.00
24224;DHT22;12359;49.716;9.212;2023-03-14T06:58:18;11.80;1.00
24224;DHT22;12359;49.716;9.212;2023-03-14T07:00:44;11.90;99.90
24224;DHT22;12359;49.716;9.212;2023-03-14T07:03:14;12.00;99.90
24224;DHT22;12359;49.716;9.212;2023-03-14T07:05:40;12.00;99.90
24224;DHT22;12359;49.716;9.212;2023-03-14T07:08:06;12.00;99.90
24224;DHT22;12359;49.716;9.212;2023-03-14T07:10:33;12.00;1.00
24224;DHT22;12359;49.716;9.212;2023-03-14T07:12:58;12.00;40.80
24224;DHT22;12359;49.716;9.212;2023-03-14T07:15:24;12.00;1.00
24224;DHT22;12359;49.716;9.212;2023-03-14T07:17:50;12.00;99.90
24224;DHT22;12359;49.716;9.212;2023-03-14T07:20:16;12.10;99.90
24224;DHT22;12359;49.716;9.212;2023-03-14T07:22:42;12.00;99.90
24224;DHT22;12359;49.716;9.212;2023-03-14T07:25:08;12.00;1.00
24224;DHT22;12359;49.716;9.212;2023-03-14T07:27:37;12.00;99.90
24224;DHT22;12359;49.716;9.212;2023-03-14T07:30:03;12.10;1.00
24224;DHT22;12359;49.716;9.212;2023-03-14T07:32:29;12.10;90.40
24224;DHT22;12359;49.716;9.212;2023-03-14T07:34:54;11.90;99.90
24224;DHT22;12359;49.716;9.212;2023-03-14T07:37:20;12.00;99.90
24224;DHT22;12359;49.716;9.212;2023-03-14T07:39:46;12.00;99.90
24224;DHT22;12359;49.716;9.212;2023-03-14T07:42:11;12.10;99.90
24224;DHT22;12359;49.716;9.212;2023-03-14T07:44:37;12.10;99.90
24224;DHT22;12359;49.716;9.212;2023-03-14T07:47:03;11.90;99.90
24224;DHT22;12359;49.716;9.212;2023-03-14T07:49:28;11.90;99.90
24224;DHT22;12359;49.716;9.212;2023-03-14T07:51:54;11.80;99.90
24224;DHT22;12359;49.716;9.212;2023-03-14T07:54:20;11.80;1.00
24224;DHT22;12359;49.716;9.212;2023-03-14T07:56:46;11.80;99.90
24224;DHT22;12359;49.716;9.212;2023-03-14T07:59:11;11.60;99.90
24224;DHT22;12359;49.716;9.212;2023-03-14T08:01:37;11.50;99.90
24224;DHT22;12359;49.716;9.212;2023-03-14T08:04:03;11.50;99.90
24224;DHT22;12359;49.716;9.212;2023-03-14T08:06:29;11.50;99.90
24224;DHT22;12359;49.716;9.212;2023-03-14T08:08:55;11.50;99.90
24224;DHT22;12359;49.716;9.212;2023-03-14T08:11:21;11.50;99.90
24224;DHT22;12359;49.716;9.212;2023-03-14T08:13:46;11.50;99.90
24224;DHT22;12359;49.716;9.212;2023-03-14T08:16:16;11.40;99.90
24224;DHT22;12359;49.716;9.212;2023-03-14T08:18:42;11.50;99.90
24224;DHT22;12359;49.716;9.212;2023-03-14T08:21:08;11.50;99.90
24224;DHT22;12359;49.716;9.212;2023-03-14T08:23:34;11.50;99.90
24224;DHT22;12359;49.716;9.212;2023-03-14T08:26:00;11.50;99.90
24224;DHT22;12359;49.716;9.212;2023-03-14T08:28:25;11.50;99.90
24224;DHT22;12359;49.716;9.212;2023-03-14T08:30:57;11.50;99.90
24224;DHT22;12359;49.716;9.212;2023-03-14T08:33:24;11.60;99.90
24224;DHT22;12359;49.716;9.212;2023-03-14T08:35:54;11.60;99.90
24224;DHT22;12359;49.716;9.212;2023-03-14T08:38:20;11.60;99.90
24224;DHT22;12359;49.716;9.212;2023-03-14T08:40:46;11.70;1.00
24224;DHT22;12359;49.716;9.212;2023-03-14T08:43:12;11.70;99.90
24224;DHT22;12359;49.716;9.212;2023-03-14T08:45:37;11.70;99.90
24224;DHT22;12359;49.716;9.212;2023-03-14T08:48:03;11.60;99.90
24224;DHT22;12359;49.716;9.212;2023-03-14T08:50:29;11.70;99.90
24224;DHT22;12359;49.716;9.212;2023-03-14T08:52:55;11.70;99.90
24224;DHT22;12359;49.716;9.212;2023-03-14T08:55:23;11.70;99.90
24224;DHT22;12359;49.716;9.212;2023-03-14T08:57:48;11.80;99.90
24224;DHT22;12359;49.716;9.212;2023-03-14T09:00:14;11.70;1.00
24224;DHT22;12359;49.716;9.212;2023-03-14T09:02:41;11.70;99.90
24224;DHT22;12359;49.716;9.212;2023-03-14T09:05:08;11.80;1.00
24224;DHT22;12359;49.716;9.212;2023-03-14T09:07:34;11.70;1.00
24224;DHT22;12359;49.716;9.212;2023-03-14T09:10:00;11.70;1.00
24224;DHT22;12359;49.716;9.212;2023-03-14T09:12:25;11.70;1.00
24224;DHT22;12359;49.716;9.212;2023-03-14T09:14:51;11.70;1.00
24224;DHT22;12359;49.716;9.212;2023-03-14T09:17:17;11.70;99.90
24224;DHT22;12359;49.716;9.212;2023-03-14T09:19:42;11.80;99.90
24224;DHT22;12359;49.716;9.212;2023-03-14T09:22:08;11.70;1.00
24224;DHT22;12359;49.716;9.212;2023-03-14T09:24:33;11.80;1.00
24224;DHT22;12359;49.716;9.212;2023-03-14T09:26:59;11.80;99.90
24224;DHT22;12359;49.716;9.212;2023-03-14T09:29:25;11.80;99.90
24224;DHT22;12359;49.716;9.212;2023-03-14T09:31:51;11.80;99.90
24224;DHT22;12359;49.716;9.212;2023-03-14T09:34:16;11.80;99.90
24224;DHT22;12359;49.716;9.212;2023-03-14T09:36:42;11.80;1.00
24224;DHT22;12359;49.716;9.212;2023-03-14T09:39:10;11.70;99.90
24224;DHT22;12359;49.716;9.212;2023-03-14T09:41:42;11.80;1.00
24224;DHT22;12359;49.716;9.212;2023-03-14T09:44:16;11.80;99.90
24224;DHT22;12359;49.716;9.212;2023-03-14T09:46:45;11.80;1.00
24224;DHT22;12359;49.716;9.212;2023-03-14T09:49:23;11.80;1.00
24224;DHT22;12359;49.716;9.212;2023-03-14T09:51:53;11.90;1.00
24224;DHT22;12359;49.716;9.212;2023-03-14T09:54:43;11.90;1.00
24224;DHT22;12359;49.716;9.212;2023-03-14T09:57:15;11.90;99.90
24224;DHT22;12359;49.716;9.212;2023-03-14T09:59:47;11.90;99.90
24224;DHT22;12359;49.716;9.212;2023-03-14T10:04:46;12.00;99.90
24224;DHT22;12359;49.716;9.212;2023-03-14T10:07:17;12.00;99.90
24224;DHT22;12359;49.716;9.212;2023-03-14T10:09:47;11.90;99.90
24224;DHT22;12359;49.716;9.212;2023-03-14T10:12:13;12.00;99.90
24224;DHT22;12359;49.716;9.212;2023-03-14T10:14:51;12.10;1.00
24224;DHT22;12359;49.716;9.212;2023-03-14T10:17:19;12.20;1.00
24224;DHT22;12359;49.716;9.212;2023-03-14T10:22:19;12.60;99.90
24224;DHT22;12359;49.716;9.212;2023-03-14T10:24:46;12.70;99.90
24224;DHT22;12359;49.716;9.212;2023-03-14T10:27:21;12.80;99.90
24224;DHT22;12359;49.716;9.212;2023-03-14T10:29:54;12.70;99.90
24224;DHT22;12359;49.716;9.212;2023-03-14T10:32:21;12.80;99.90
24224;DHT22;12359;49.716;9.212;2023-03-14T10:35:08;12.70;99.90
24224;DHT22;12359;49.716;9.212;2023-03-14T10:37:34;12.70;99.90
24224;DHT22;12359;49.716;9.212;2023-03-14T10:40:02;12.60;99.90
24224;DHT22;12359;49.716;9.212;2023-03-14T10:42:39;12.60;99.90
24224;DHT22;12359;49.716;9.212;2023-03-14T10:45:29;12.40;99.90
24224;DHT22;12359;49.716;9.212;2023-03-14T10:56:36;12.20;1.00
24224;DHT22;12359;49.716;9.212;2023-03-14T10:59:04;12.20;8.50
24224;DHT22;12359;49.716;9.212;2023-03-14T11:06:54;11.60;26.60
24224;DHT22;12359;49.716;9.212;2023-03-14T11:09:35;11.50;27.20
24224;DHT22;12359;49.716;9.212;2023-03-14T11:14:46;11.40;49.40
24224;DHT22;12359;49.716;9.212;2023-03-14T11:24:00;11.30;59.10
24224;DHT22;12359;49.716;9.212;2023-03-14T11:26:52;11.20;54.80
24224;DHT22;12359;49.716;9.212;2023-03-14T11:34:52;11.20;60.50
24224;DHT22;12359;49.716;9.212;2023-03-14T11:42:26;11.20;59.10
24224;DHT22;12359;49.716;9.212;2023-03-14T11:44:54;11.20;62.00
24224;DHT22;12359;49.716;9.212;2023-03-14T11:47:34;11.10;56.90
24224;DHT22;12359;49.716;9.212;2023-03-14T11:50:15;11.10;58.20
24224;DHT22;12359;49.716;9.212;2023-03-14T11:52:51;11.10;57.80
24224;DHT22;12359;49.716;9.212;2023-03-14T11:55:26;11.10;44.40
24224;DHT22;12359;49.716;9.212;2023-03-14T11:57:56;11.20;50.10
24224;DHT22;12359;49.716;9.212;2023-03-14T12:00:24;11.30;51.30
24224;DHT22;12359;49.716;9.212;2023-03-14T12:03:07;11.40;55.00
24224;DHT22;12359;49.716;9.212;2023-03-14T12:13:13;11.50;39.70
24224;DHT22;12359;49.716;9.212;2023-03-14T12:15:42;11.50;45.20
24224;DHT22;12359;49.716;9.212;2023-03-14T12:18:38;11.60;51.10
24224;DHT22;12359;49.716;9.212;2023-03-14T12:21:07;11.70;38.40
24224;DHT22;12359;49.716;9.212;2023-03-14T12:23:53;11.60;35.10
24224;DHT22;12359;49.716;9.212;2023-03-14T12:26:22;11.70;33.50
24224;DHT22;12359;49.716;9.212;2023-03-14T12:42:09;12.00;44.80
24224;DHT22;12359;49.716;9.212;2023-03-14T12:44:39;12.00;28.30
24224;DHT22;12359;49.716;9.212;2023-03-14T12:49:48;11.90;45.40
24224;DHT22;12359;49.716;9.212;2023-03-14T13:00:39;11.80;49.00
24224;DHT22;12359;49.716;9.212;2023-03-14T13:05:55;11.50;30.00
24224;DHT22;12359;49.716;9.212;2023-03-14T13:08:42;11.50;27.10
24224;DHT22;12359;49.716;9.212;2023-03-14T13:11:20;11.40;33.70
24224;DHT22;12359;49.716;9.212;2023-03-14T13:13:56;11.30;31.50
24224;DHT22;12359;49.716;9.212;2023-03-14T13:16:22;11.20;3.90
24224;DHT22;12359;49.716;9.212;2023-03-14T13:18:49;11.00;24.20
24224;DHT22;12359;49.716;9.212;2023-03-14T13:21:17;10.90;27.20
24224;DHT22;12359;49.716;9.212;2023-03-14T13:24:24;10.80;31.10
24224;DHT22;12359;49.716;9.212;2023-03-14T13:26:53;10.80;43.10
24224;DHT22;12359;49.716;9.212;2023-03-14T13:31:49;10.70;27.60
24224;DHT22;12359;49.716;9.212;2023-03-14T13:34:15;10.70;26.30
24224;DHT22;12359;49.716;9.212;2023-03-14T13:36:42;10.70;21.20
24224;DHT22;12359;49.716;9.212;2023-03-14T13:39:18;10.80;24.10
24224;DHT22;12359;49.716;9.212;2023-03-14T13:41:45;10.80;19.70
24224;DHT22;12359;49.716;9.212;2023-03-14T13:44:38;10.80;13.00
24224;DHT22;12359;49.716;9.212;2023-03-14T13:47:06;10.90;11.50
24224;DHT22;12359;49.716;9.212;2023-03-14T13:49:37;10.90;1.00
24224;DHT22;12359;49.716;9.212;2023-03-14T13:52:04;11.00;13.80
24224;DHT22;12359;49.716;9.212;2023-03-14T13:54:46;10.90;1.00
24224;DHT22;12359;49.716;9.212;2023-03-14T13:57:11;10.80;1.00
24224;DHT22;12359;49.716;9.212;2023-03-14T13:59:37;10.60;1.00
24224;DHT22;12359;49.716;9.212;2023-03-14T14:02:15;10.60;7.10
24224;DHT22;12359;49.716;9.212;2023-03-14T14:04:41;10.60;1.00
24224;DHT22;12359;49.716;9.212;2023-03-14T14:07:09;10.60;1.00
24224;DHT22;12359;49.716;9.212;2023-03-14T14:09:57;10.60;6.20
24224;DHT22;12359;49.716;9.212;2023-03-14T14:12:28;10.50;1.00
24224;DHT22;12359;49.716;9.212;2023-03-14T14:15:05;10.50;1.00
24224;DHT22;12359;49.716;9.212;2023-03-14T14:17:55;10.40;1.00
24224;DHT22;12359;49.716;9.212;2023-03-14T14:20:34;10.30;3.70
24224;DHT22;12359;49.716;9.212;2023-03-14T14:23:05;10.30;1.00
24224;DHT22;12359;49.716;9.212;2023-03-14T14:25:33;10.20;1.00
24224;DHT22;12359;49.716;9.212;2023-03-14T14:27:59;10.10;1.00
24224;DHT22;12359;49.716;9.212;2023-03-14T14:30:39;10.00;1.00
24224;DHT22;12359;49.716;9.212;2023-03-14T14:33:21;10.00;1.00
24224;DHT22;12359;49.716;9.212;2023-03-14T14:36:05;9.80;1.00
24224;DHT22;12359;49.716;9.212;2023-03-14T14:38:37;9.70;1.00
24224;DHT22;12359;49.716;9.212;2023-03-14T14:41:03;9.60;1.00
24224;DHT22;12359;49.716;9.212;2023-03-14T14:43:30;9.70;1.00
24224;DHT22;12359;49.716;9.212;2023-03-14T14:45:59;9.80;1.00
24224;DHT22;12359;49.716;9.212;2023-03-14T14:48:26;9.80;1.00
24224;DHT22;12359;49.716;9.212;2023-03-14T14:51:00;9.80;1.00
24224;DHT22;12359;49.716;9.212;2023-03-14T14:53:39;9.80;1.00
24224;DHT22;12359;49.716;9.212;2023-03-14T14:56:26;9.90;1.00
24224;DHT22;12359;49.716;9.212;2023-03-14T14:58:59;9.80;1.00
24224;DHT22;12359;49.716;9.212;2023-03-14T15:01:33;9.70;1.00
24224;DHT22;12359;49.716;9.212;2023-03-14T15:03:59;9.70;1.00
24224;DHT22;12359;49.716;9.212;2023-03-14T15:06:28;9.60;1.00
24224;DHT22;12359;49.716;9.212;2023-03-14T15:08:54;9.60;1.00
24224;DHT22;12359;49.716;9.212;2023-03-14T15:11:23;9.60;1.00
24224;DHT22;12359;49.716;9.212;2023-03-14T15:13:49;9.50;1.00
24224;DHT22;12359;49.716;9.212;2023-03-14T15:16:24;9.60;1.00
24224;DHT22;12359;49.716;9.212;2023-03-14T15:18:54;9.50;1.00
24224;DHT22;12359;49.716;9.212;2023-03-14T15:21:21;9.50;1.00
24224;DHT22;12359;49.716;9.212;2023-03-14T15:23:47;9.40;1.00
24224;DHT22;12359;49.716;9.212;2023-03-14T15:26:16;9.30;99.90
24224;DHT22;12359;49.716;9.212;2023-03-14T15:28:42;9.30;1.00
24224;DHT22;12359;49.716;9.212;2023-03-14T15:31:09;9.20;1.00
24224;DHT22;12359;49.716;9.212;2023-03-14T15:33:36;9.30;1.00
24224;DHT22;12359;49.716;9.212;2023-03-14T15:36:03;9.20;1.00
24224;DHT22;12359;49.716;9.212;2023-03-14T15:38:28;9.30;1.00
24224;DHT22;12359;49.716;9.212;2023-03-14T15:40:54;9.30;1.00
24224;DHT22;12359;49.716;9.212;2023-03-14T15:43:20;9.30;1.00
24224;DHT22;12359;49.716;9.212;2023-03-14T15:45:46;9.20;99.90
24224;DHT22;12359;49.716;9.212;2023-03-14T15:48:15;9.10;16.00
24224;DHT22;12359;49.716;9.212;2023-03-14T15:50:42;9.10;1.00
24224;DHT22;12359;49.716;9.212;2023-03-14T15:53:08;9.10;99.90
24224;DHT22;12359;49.716;9.212;2023-03-14T15:55:33;9.10;99.90
24224;DHT22;12359;49.716;9.212;2023-03-14T15:57:59;9.10;15.90
24224;DHT22;12359;49.716;9.212;2023-03-14T16:00:27;9.20;99.90
24224;DHT22;12359;49.716;9.212;2023-03-14T16:02:53;9.10;99.90
24224;DHT22;12359;49.716;9.212;2023-03-14T16:05:19;9.10;99.90
24224;DHT22;12359;49.716;9.212;2023-03-14T16:07:45;9.10;99.90
24224;DHT22;12359;49.716;9.212;2023-03-14T16:10:12;9.10;1.00
24224;DHT22;12359;49.716;9.212;2023-03-14T16:12:38;9.10;1.00
24224;DHT22;12359;49.716;9.212;2023-03-14T16:15:04;9.20;99.90
24224;DHT22;12359;49.716;9.212;2023-03-14T16:17:30;9.00;99.90
24224;DHT22;12359;49.716;9.212;2023-03-14T16:19:56;9.00;1.00
24224;DHT22;12359;49.716;9.212;2023-03-14T16:22:21;9.00;28.60
24224;DHT22;12359;49.716;9.212;2023-03-14T16:24:47;9.10;1.00
24224;DHT22;12359;49.716;9.212;2023-03-14T16:27:13;9.10;50.50
24224;DHT22;12359;49.716;9.212;2023-03-14T16:29:38;9.00;32.50
24224;DHT22;12359;49.716;9.212;2023-03-14T16:32:04;9.00;1.00
24224;DHT22;12359;49.716;9.212;2023-03-14T16:34:30;8.90;99.90
24224;DHT22;12359;49.716;9.212;2023-03-14T16:36:56;9.00;1.00
24224;DHT22;12359;49.716;9.212;2023-03-14T16:39:21;8.90;99.90
24224;DHT22;12359;49.716;9.212;2023-03-14T16:41:47;8.80;13.30
24224;DHT22;12359;49.716;9.212;2023-03-14T16:44:13;8.80;99.90
24224;DHT22;12359;49.716;9.212;2023-03-14T16:46:39;8.70;99.90
24224;DHT22;12359;49.716;9.212;2023-03-14T16:49:05;8.80;99.90
24224;DHT22;12359;49.716;9.212;2023-03-14T16:51:31;8.70;99.90
24224;DHT22;12359;49.716;9.212;2023-03-14T16:53:57;8.70;1.00
24224;DHT22;12359;49.716;9.212;2023-03-14T16:56:23;8.70;99.90
24224;DHT22;12359;49.716;9.212;2023-03-14T16:58:49;8.70;99.90
24224;DHT22;12359;49.716;9.212;2023-03-14T17:01:16;8.70;99.90
24224;DHT22;12359;49.716;9.212;2023-03-14T17:03:46;8.70;99.90
24224;DHT22;12359;49.716;9.212;2023-03-14T17:06:18;8.70;55.40
24224;DHT22;12359;49.716;9.212;2023-03-14T17:08:44;8.70;99.90
24224;DHT22;12359;49.716;9.212;2023-03-14T17:11:10;8.70;99.90